LTAY/DNZ METAR and TAF weather

Enter ICAO airport designator
Station Type Date Time Source
LTAY METAR 2019/12/07 16:50 UTC NOAA

LTAY 071650Z 25009KT CAVOK 02/M04 Q1018


Station Type Date Time Source
LTAY Decoded METAR 2019/12/07 16:50 UTC NOAA

Cardak, Turkey (LTAY) 37-47N 029-42E
Dec 07, 2019 - 11:50 AM EST / 2019.12.07 1650 UTC
Wind: from the WSW (250 degrees) at 10 MPH (9 KT):0
Visibility: greater than 7 mile(s):0
Temperature: 35 F (2 C)
Windchill: 26 F (-3 C):1
Dew Point: 24 F (-4 C)
Relative Humidity: 64%
Pressure (altimeter): 30.06 in. Hg (1018 hPa)
ob: LTAY 071650Z 25009KT CAVOK 02/M04 Q1018
cycle: 17

Station Type Date Time Source
LTAY TAF UTC NOAA

Error!

Example: see airport list